sensor_id;sensor_type;location;lat;lon;timestamp;P1;durP1;ratioP1;P2;durP2;ratioP2
52322;SDS011;38263;52.920;6.238;2023-07-31T00:00:37;5.60;;;4.18;;
52322;SDS011;38263;52.920;6.238;2023-07-31T00:03:03;6.28;;;4.20;;
52322;SDS011;38263;52.920;6.238;2023-07-31T00:05:29;6.10;;;3.90;;
52322;SDS011;38263;52.920;6.238;2023-07-31T00:07:55;8.48;;;4.50;;
52322;SDS011;38263;52.920;6.238;2023-07-31T00:10:21;6.15;;;4.10;;
52322;SDS011;38263;52.920;6.238;2023-07-31T00:12:47;7.15;;;3.58;;
52322;SDS011;38263;52.920;6.238;2023-07-31T00:15:14;7.38;;;4.47;;
52322;SDS011;38263;52.920;6.238;2023-07-31T00:17:40;11.00;;;4.50;;
52322;SDS011;38263;52.920;6.238;2023-07-31T00:20:06;5.85;;;4.45;;
52322;SDS011;38263;52.920;6.238;2023-07-31T00:22:32;8.43;;;4.28;;
52322;SDS011;38263;52.920;6.238;2023-07-31T00:24:58;6.32;;;3.92;;
52322;SDS011;38263;52.920;6.238;2023-07-31T00:27:24;5.65;;;3.97;;
52322;SDS011;38263;52.920;6.238;2023-07-31T00:29:50;5.07;;;4.13;;
52322;SDS011;38263;52.920;6.238;2023-07-31T00:32:16;7.65;;;4.38;;
52322;SDS011;38263;52.920;6.238;2023-07-31T00:34:42;5.10;;;3.53;;
52322;SDS011;38263;52.920;6.238;2023-07-31T00:37:08;7.18;;;3.28;;
52322;SDS011;38263;52.920;6.238;2023-07-31T00:39:34;4.30;;;2.80;;
52322;SDS011;38263;52.920;6.238;2023-07-31T00:42:01;3.17;;;2.55;;
52322;SDS011;38263;52.920;6.238;2023-07-31T00:44:27;7.72;;;2.78;;
52322;SDS011;38263;52.920;6.238;2023-07-31T00:46:53;2.70;;;2.10;;
52322;SDS011;38263;52.920;6.238;2023-07-31T00:49:20;3.50;;;1.90;;
52322;SDS011;38263;52.920;6.238;2023-07-31T00:51:46;2.33;;;1.35;;
52322;SDS011;38263;52.920;6.238;2023-07-31T00:54:12;1.83;;;1.20;;
52322;SDS011;38263;52.920;6.238;2023-07-31T00:56:38;2.15;;;1.45;;
52322;SDS011;38263;52.920;6.238;2023-07-31T00:59:04;1.25;;;0.95;;
52322;SDS011;38263;52.920;6.238;2023-07-31T01:01:30;2.70;;;1.02;;
52322;SDS011;38263;52.920;6.238;2023-07-31T01:03:56;1.95;;;0.95;;
52322;SDS011;38263;52.920;6.238;2023-07-31T01:06:26;3.67;;;1.40;;
52322;SDS011;38263;52.920;6.238;2023-07-31T01:11:52;2.20;;;1.17;;
52322;SDS011;38263;52.920;6.238;2023-07-31T01:14:21;1.77;;;1.10;;
52322;SDS011;38263;52.920;6.238;2023-07-31T01:16:47;2.80;;;0.90;;
52322;SDS011;38263;52.920;6.238;2023-07-31T01:19:14;1.63;;;0.95;;
52322;SDS011;38263;52.920;6.238;2023-07-31T01:27:21;2.65;;;1.00;;
52322;SDS011;38263;52.920;6.238;2023-07-31T01:29:53;1.77;;;0.77;;
52322;SDS011;38263;52.920;6.238;2023-07-31T01:32:25;2.60;;;1.02;;
52322;SDS011;38263;52.920;6.238;2023-07-31T01:34:53;0.90;;;0.65;;
52322;SDS011;38263;52.920;6.238;2023-07-31T01:37:19;0.80;;;0.50;;
52322;SDS011;38263;52.920;6.238;2023-07-31T01:39:45;2.70;;;0.63;;
52322;SDS011;38263;52.920;6.238;2023-07-31T01:42:11;0.60;;;0.50;;
52322;SDS011;38263;52.920;6.238;2023-07-31T01:44:37;0.75;;;0.60;;
52322;SDS011;38263;52.920;6.238;2023-07-31T01:47:03;1.73;;;0.50;;
52322;SDS011;38263;52.920;6.238;2023-07-31T01:49:29;1.30;;;0.50;;
52322;SDS011;38263;52.920;6.238;2023-07-31T01:51:55;5.80;;;0.70;;
52322;SDS011;38263;52.920;6.238;2023-07-31T01:54:21;0.93;;;0.68;;
52322;SDS011;38263;52.920;6.238;2023-07-31T01:56:47;1.30;;;0.63;;
52322;SDS011;38263;52.920;6.238;2023-07-31T01:59:13;0.63;;;0.40;;
52322;SDS011;38263;52.920;6.238;2023-07-31T02:01:39;2.03;;;0.57;;
52322;SDS011;38263;52.920;6.238;2023-07-31T02:04:05;1.23;;;0.70;;
52322;SDS011;38263;52.920;6.238;2023-07-31T02:06:31;1.30;;;0.57;;
52322;SDS011;38263;52.920;6.238;2023-07-31T02:08:57;2.72;;;0.40;;
52322;SDS011;38263;52.920;6.238;2023-07-31T02:11:23;2.10;;;0.50;;
52322;SDS011;38263;52.920;6.238;2023-07-31T02:13:49;1.58;;;0.60;;
52322;SDS011;38263;52.920;6.238;2023-07-31T02:16:15;1.00;;;0.60;;
52322;SDS011;38263;52.920;6.238;2023-07-31T02:18:41;1.08;;;0.70;;
52322;SDS011;38263;52.920;6.238;2023-07-31T02:21:07;0.75;;;0.57;;
52322;SDS011;38263;52.920;6.238;2023-07-31T02:23:33;2.55;;;0.60;;
52322;SDS011;38263;52.920;6.238;2023-07-31T02:25:59;2.30;;;0.90;;
52322;SDS011;38263;52.920;6.238;2023-07-31T02:28:25;1.00;;;0.77;;
52322;SDS011;38263;52.920;6.238;2023-07-31T02:30:50;3.53;;;0.90;;
52322;SDS011;38263;52.920;6.238;2023-07-31T02:33:17;2.60;;;0.98;;
52322;SDS011;38263;52.920;6.238;2023-07-31T02:35:43;2.58;;;0.70;;
52322;SDS011;38263;52.920;6.238;2023-07-31T02:38:09;2.55;;;0.88;;
52322;SDS011;38263;52.920;6.238;2023-07-31T02:40:35;2.38;;;0.80;;
52322;SDS011;38263;52.920;6.238;2023-07-31T02:43:01;1.95;;;1.00;;
52322;SDS011;38263;52.920;6.238;2023-07-31T02:45:27;1.92;;;0.80;;
52322;SDS011;38263;52.920;6.238;2023-07-31T02:47:53;2.40;;;0.77;;
52322;SDS011;38263;52.920;6.238;2023-07-31T02:50:19;2.35;;;0.93;;
52322;SDS011;38263;52.920;6.238;2023-07-31T02:52:45;2.17;;;0.70;;
52322;SDS011;38263;52.920;6.238;2023-07-31T02:55:11;3.00;;;1.25;;
52322;SDS011;38263;52.920;6.238;2023-07-31T02:57:37;3.78;;;1.20;;
52322;SDS011;38263;52.920;6.238;2023-07-31T03:00:03;1.70;;;0.98;;
52322;SDS011;38263;52.920;6.238;2023-07-31T03:02:31;1.73;;;1.00;;
52322;SDS011;38263;52.920;6.238;2023-07-31T03:04:57;1.40;;;0.70;;
52322;SDS011;38263;52.920;6.238;2023-07-31T03:07:23;3.22;;;1.70;;
52322;SDS011;38263;52.920;6.238;2023-07-31T03:09:49;1.35;;;0.70;;
52322;SDS011;38263;52.920;6.238;2023-07-31T03:12:14;1.67;;;0.65;;
52322;SDS011;38263;52.920;6.238;2023-07-31T03:14:40;2.75;;;0.88;;
52322;SDS011;38263;52.920;6.238;2023-07-31T03:17:06;2.63;;;0.70;;
52322;SDS011;38263;52.920;6.238;2023-07-31T03:19:32;1.77;;;0.98;;
52322;SDS011;38263;52.920;6.238;2023-07-31T03:21:58;1.48;;;0.70;;
52322;SDS011;38263;52.920;6.238;2023-07-31T03:24:25;1.02;;;0.40;;
52322;SDS011;38263;52.920;6.238;2023-07-31T03:26:51;0.95;;;0.60;;
52322;SDS011;38263;52.920;6.238;2023-07-31T03:29:17;2.15;;;0.75;;
52322;SDS011;38263;52.920;6.238;2023-07-31T03:31:43;1.83;;;0.70;;
52322;SDS011;38263;52.920;6.238;2023-07-31T03:34:09;1.10;;;0.80;;
52322;SDS011;38263;52.920;6.238;2023-07-31T03:36:35;2.10;;;0.75;;
52322;SDS011;38263;52.920;6.238;2023-07-31T03:39:01;1.58;;;0.50;;
52322;SDS011;38263;52.920;6.238;2023-07-31T03:41:26;0.80;;;0.60;;
52322;SDS011;38263;52.920;6.238;2023-07-31T03:43:52;1.70;;;0.60;;
52322;SDS011;38263;52.920;6.238;2023-07-31T03:46:20;3.78;;;0.70;;
52322;SDS011;38263;52.920;6.238;2023-07-31T03:48:46;1.55;;;0.47;;
52322;SDS011;38263;52.920;6.238;2023-07-31T03:51:12;1.65;;;0.63;;
52322;SDS011;38263;52.920;6.238;2023-07-31T03:53:38;1.33;;;0.82;;
52322;SDS011;38263;52.920;6.238;2023-07-31T03:56:04;0.82;;;0.60;;
52322;SDS011;38263;52.920;6.238;2023-07-31T03:58:30;1.45;;;0.65;;
52322;SDS011;38263;52.920;6.238;2023-07-31T04:00:57;1.17;;;0.60;;
52322;SDS011;38263;52.920;6.238;2023-07-31T04:03:23;0.93;;;0.50;;
52322;SDS011;38263;52.920;6.238;2023-07-31T04:05:49;1.52;;;0.60;;
52322;SDS011;38263;52.920;6.238;2023-07-31T04:08:15;1.48;;;0.77;;
52322;SDS011;38263;52.920;6.238;2023-07-31T04:10:40;2.75;;;1.60;;
52322;SDS011;38263;52.920;6.238;2023-07-31T04:13:06;2.35;;;0.70;;
52322;SDS011;38263;52.920;6.238;2023-07-31T04:15:32;2.17;;;0.75;;
52322;SDS011;38263;52.920;6.238;2023-07-31T04:17:58;2.78;;;0.80;;
52322;SDS011;38263;52.920;6.238;2023-07-31T04:20:24;2.83;;;0.95;;
52322;SDS011;38263;52.920;6.238;2023-07-31T04:22:50;6.63;;;1.58;;
52322;SDS011;38263;52.920;6.238;2023-07-31T04:25:16;7.05;;;2.00;;
52322;SDS011;38263;52.920;6.238;2023-07-31T04:27:42;6.55;;;2.47;;
52322;SDS011;38263;52.920;6.238;2023-07-31T04:30:08;6.50;;;2.67;;
52322;SDS011;38263;52.920;6.238;2023-07-31T04:32:34;8.10;;;3.50;;
52322;SDS011;38263;52.920;6.238;2023-07-31T04:35:00;9.05;;;4.03;;
52322;SDS011;38263;52.920;6.238;2023-07-31T04:37:26;12.98;;;4.68;;
52322;SDS011;38263;52.920;6.238;2023-07-31T04:39:52;14.00;;;5.57;;
52322;SDS011;38263;52.920;6.238;2023-07-31T04:42:18;21.77;;;6.07;;
52322;SDS011;38263;52.920;6.238;2023-07-31T04:44:44;17.38;;;7.20;;
52322;SDS011;38263;52.920;6.238;2023-07-31T04:47:10;20.60;;;6.50;;
52322;SDS011;38263;52.920;6.238;2023-07-31T04:49:36;22.98;;;7.53;;
52322;SDS011;38263;52.920;6.238;2023-07-31T04:52:02;25.40;;;7.68;;
52322;SDS011;38263;52.920;6.238;2023-07-31T04:54:28;24.48;;;6.82;;
52322;SDS011;38263;52.920;6.238;2023-07-31T04:56:54;32.38;;;9.30;;
52322;SDS011;38263;52.920;6.238;2023-07-31T04:59:20;22.40;;;7.28;;
52322;SDS011;38263;52.920;6.238;2023-07-31T05:01:46;28.02;;;7.32;;
52322;SDS011;38263;52.920;6.238;2023-07-31T05:04:12;22.80;;;7.47;;
52322;SDS011;38263;52.920;6.238;2023-07-31T05:06:39;22.40;;;7.70;;
52322;SDS011;38263;52.920;6.238;2023-07-31T05:09:05;27.73;;;8.18;;
52322;SDS011;38263;52.920;6.238;2023-07-31T05:11:31;27.08;;;8.10;;
52322;SDS011;38263;52.920;6.238;2023-07-31T05:13:57;25.63;;;8.02;;
52322;SDS011;38263;52.920;6.238;2023-07-31T05:16:23;25.92;;;7.18;;
52322;SDS011;38263;52.920;6.238;2023-07-31T05:18:48;26.05;;;7.00;;
52322;SDS011;38263;52.920;6.238;2023-07-31T05:21:14;25.90;;;7.30;;
52322;SDS011;38263;52.920;6.238;2023-07-31T05:23:40;22.88;;;7.45;;
52322;SDS011;38263;52.920;6.238;2023-07-31T05:26:06;26.05;;;7.43;;
52322;SDS011;38263;52.920;6.238;2023-07-31T05:28:34;28.00;;;7.93;;
52322;SDS011;38263;52.920;6.238;2023-07-31T05:31:01;22.05;;;6.43;;
52322;SDS011;38263;52.920;6.238;2023-07-31T05:33:27;24.30;;;7.22;;
52322;SDS011;38263;52.920;6.238;2023-07-31T05:35:53;24.30;;;7.75;;
52322;SDS011;38263;52.920;6.238;2023-07-31T05:38:19;24.90;;;7.28;;
52322;SDS011;38263;52.920;6.238;2023-07-31T05:40:45;23.40;;;7.50;;
52322;SDS011;38263;52.920;6.238;2023-07-31T05:43:11;33.58;;;7.75;;
52322;SDS011;38263;52.920;6.238;2023-07-31T05:45:37;20.38;;;7.10;;
52322;SDS011;38263;52.920;6.238;2023-07-31T05:48:03;22.05;;;7.25;;
52322;SDS011;38263;52.920;6.238;2023-07-31T05:50:29;27.88;;;7.85;;
52322;SDS011;38263;52.920;6.238;2023-07-31T05:52:55;21.48;;;7.28;;
52322;SDS011;38263;52.920;6.238;2023-07-31T05:55:21;19.75;;;7.85;;
52322;SDS011;38263;52.920;6.238;2023-07-31T05:57:48;23.80;;;8.02;;
52322;SDS011;38263;52.920;6.238;2023-07-31T06:00:14;29.83;;;7.10;;
52322;SDS011;38263;52.920;6.238;2023-07-31T06:02:41;31.27;;;9.50;;
52322;SDS011;38263;52.920;6.238;2023-07-31T06:05:07;21.35;;;6.65;;
52322;SDS011;38263;52.920;6.238;2023-07-31T06:07:32;22.98;;;7.20;;
52322;SDS011;38263;52.920;6.238;2023-07-31T06:09:58;24.23;;;7.13;;
52322;SDS011;38263;52.920;6.238;2023-07-31T06:12:29;24.60;;;7.75;;
52322;SDS011;38263;52.920;6.238;2023-07-31T06:14:56;24.98;;;6.70;;
52322;SDS011;38263;52.920;6.238;2023-07-31T06:17:22;20.40;;;6.43;;
52322;SDS011;38263;52.920;6.238;2023-07-31T06:19:48;22.45;;;6.28;;
52322;SDS011;38263;52.920;6.238;2023-07-31T06:22:14;24.90;;;6.45;;
52322;SDS011;38263;52.920;6.238;2023-07-31T06:24:40;19.40;;;7.30;;
52322;SDS011;38263;52.920;6.238;2023-07-31T06:27:06;24.40;;;6.63;;
52322;SDS011;38263;52.920;6.238;2023-07-31T06:29:32;22.33;;;6.82;;
52322;SDS011;38263;52.920;6.238;2023-07-31T06:31:58;25.75;;;7.60;;
52322;SDS011;38263;52.920;6.238;2023-07-31T06:34:24;25.58;;;7.50;;
52322;SDS011;38263;52.920;6.238;2023-07-31T06:36:50;23.63;;;7.40;;
52322;SDS011;38263;52.920;6.238;2023-07-31T06:39:16;27.63;;;6.78;;
52322;SDS011;38263;52.920;6.238;2023-07-31T06:41:43;28.27;;;7.63;;
52322;SDS011;38263;52.920;6.238;2023-07-31T06:44:09;27.52;;;8.10;;
52322;SDS011;38263;52.920;6.238;2023-07-31T06:46:35;22.10;;;6.97;;
52322;SDS011;38263;52.920;6.238;2023-07-31T06:49:01;23.30;;;6.63;;
52322;SDS011;38263;52.920;6.238;2023-07-31T06:51:27;19.35;;;5.80;;
52322;SDS011;38263;52.920;6.238;2023-07-31T06:53:56;17.30;;;6.30;;
52322;SDS011;38263;52.920;6.238;2023-07-31T06:56:22;29.35;;;6.00;;
52322;SDS011;38263;52.920;6.238;2023-07-31T06:58:48;14.68;;;5.07;;
52322;SDS011;38263;52.920;6.238;2023-07-31T07:01:14;10.13;;;3.85;;
52322;SDS011;38263;52.920;6.238;2023-07-31T07:03:40;10.63;;;3.50;;
52322;SDS011;38263;52.920;6.238;2023-07-31T07:06:06;10.02;;;4.00;;
52322;SDS011;38263;52.920;6.238;2023-07-31T07:08:32;9.65;;;3.83;;
52322;SDS011;38263;52.920;6.238;2023-07-31T07:10:58;10.23;;;4.25;;
52322;SDS011;38263;52.920;6.238;2023-07-31T07:13:24;8.55;;;3.00;;
52322;SDS011;38263;52.920;6.238;2023-07-31T07:15:50;8.30;;;2.97;;
52322;SDS011;38263;52.920;6.238;2023-07-31T07:18:16;8.82;;;2.75;;
52322;SDS011;38263;52.920;6.238;2023-07-31T07:20:46;9.43;;;3.22;;
52322;SDS011;38263;52.920;6.238;2023-07-31T07:23:12;5.97;;;2.63;;
52322;SDS011;38263;52.920;6.238;2023-07-31T07:25:38;10.18;;;2.47;;
52322;SDS011;38263;52.920;6.238;2023-07-31T07:28:04;7.05;;;3.25;;
52322;SDS011;38263;52.920;6.238;2023-07-31T07:30:30;5.22;;;2.38;;
52322;SDS011;38263;52.920;6.238;2023-07-31T07:32:56;6.10;;;2.65;;
52322;SDS011;38263;52.920;6.238;2023-07-31T07:35:22;4.10;;;2.53;;
52322;SDS011;38263;52.920;6.238;2023-07-31T07:37:49;8.52;;;2.45;;
52322;SDS011;38263;52.920;6.238;2023-07-31T07:40:15;7.85;;;2.75;;
52322;SDS011;38263;52.920;6.238;2023-07-31T07:42:41;5.88;;;1.95;;
52322;SDS011;38263;52.920;6.238;2023-07-31T07:45:07;4.68;;;2.30;;
52322;SDS011;38263;52.920;6.238;2023-07-31T07:47:33;4.50;;;1.90;;
52322;SDS011;38263;52.920;6.238;2023-07-31T07:49:59;5.20;;;2.38;;
52322;SDS011;38263;52.920;6.238;2023-07-31T07:52:25;5.80;;;2.10;;
52322;SDS011;38263;52.920;6.238;2023-07-31T07:54:51;6.05;;;2.17;;
52322;SDS011;38263;52.920;6.238;2023-07-31T07:57:17;4.32;;;1.77;;
52322;SDS011;38263;52.920;6.238;2023-07-31T07:59:43;3.40;;;1.63;;
52322;SDS011;38263;52.920;6.238;2023-07-31T08:02:09;5.47;;;1.70;;
52322;SDS011;38263;52.920;6.238;2023-07-31T08:04:35;5.38;;;1.58;;
52322;SDS011;38263;52.920;6.238;2023-07-31T08:07:01;3.17;;;1.70;;
52322;SDS011;38263;52.920;6.238;2023-07-31T08:09:27;3.42;;;1.67;;
52322;SDS011;38263;52.920;6.238;2023-07-31T08:11:53;3.17;;;1.63;;
52322;SDS011;38263;52.920;6.238;2023-07-31T08:14:22;7.22;;;2.10;;
52322;SDS011;38263;52.920;6.238;2023-07-31T08:16:48;5.68;;;1.73;;
52322;SDS011;38263;52.920;6.238;2023-07-31T08:19:14;3.38;;;1.38;;
52322;SDS011;38263;52.920;6.238;2023-07-31T08:21:40;3.20;;;1.70;;
52322;SDS011;38263;52.920;6.238;2023-07-31T08:24:06;3.25;;;1.85;;
52322;SDS011;38263;52.920;6.238;2023-07-31T08:26:33;3.28;;;1.58;;
52322;SDS011;38263;52.920;6.238;2023-07-31T08:28:59;2.80;;;1.27;;
52322;SDS011;38263;52.920;6.238;2023-07-31T08:31:25;5.18;;;2.05;;
52322;SDS011;38263;52.920;6.238;2023-07-31T08:33:52;2.35;;;1.60;;
52322;SDS011;38263;52.920;6.238;2023-07-31T08:36:18;1.83;;;1.23;;
52322;SDS011;38263;52.920;6.238;2023-07-31T08:38:45;1.50;;;1.30;;
52322;SDS011;38263;52.920;6.238;2023-07-31T08:41:10;3.35;;;1.23;;
52322;SDS011;38263;52.920;6.238;2023-07-31T08:43:38;3.00;;;1.25;;
52322;SDS011;38263;52.920;6.238;2023-07-31T08:46:04;3.38;;;1.30;;
52322;SDS011;38263;52.920;6.238;2023-07-31T08:48:31;2.35;;;1.23;;
52322;SDS011;38263;52.920;6.238;2023-07-31T08:50:57;2.00;;;1.30;;
52322;SDS011;38263;52.920;6.238;2023-07-31T08:53:23;2.50;;;1.25;;
52322;SDS011;38263;52.920;6.238;2023-07-31T08:55:49;2.17;;;1.25;;
52322;SDS011;38263;52.920;6.238;2023-07-31T08:58:15;1.67;;;1.00;;
52322;SDS011;38263;52.920;6.238;2023-07-31T09:00:43;2.17;;;1.10;;
52322;SDS011;38263;52.920;6.238;2023-07-31T09:03:15;2.58;;;0.80;;
52322;SDS011;38263;52.920;6.238;2023-07-31T09:05:43;1.60;;;1.05;;
52322;SDS011;38263;52.920;6.238;2023-07-31T09:08:10;1.83;;;1.20;;
52322;SDS011;38263;52.920;6.238;2023-07-31T09:10:40;1.33;;;0.80;;
52322;SDS011;38263;52.920;6.238;2023-07-31T09:13:11;2.20;;;0.60;;
52322;SDS011;38263;52.920;6.238;2023-07-31T09:15:37;1.20;;;0.70;;
52322;SDS011;38263;52.920;6.238;2023-07-31T09:18:03;1.27;;;0.68;;
52322;SDS011;38263;52.920;6.238;2023-07-31T09:20:30;1.48;;;0.60;;
52322;SDS011;38263;52.920;6.238;2023-07-31T09:23:05;1.00;;;0.55;;
52322;SDS011;38263;52.920;6.238;2023-07-31T09:25:35;1.67;;;0.77;;
52322;SDS011;38263;52.920;6.238;2023-07-31T09:28:02;1.40;;;0.60;;
52322;SDS011;38263;52.920;6.238;2023-07-31T09:30:29;1.20;;;0.68;;
52322;SDS011;38263;52.920;6.238;2023-07-31T09:33:03;0.85;;;0.55;;
52322;SDS011;38263;52.920;6.238;2023-07-31T09:35:32;1.67;;;0.60;;
52322;SDS011;38263;52.920;6.238;2023-07-31T09:38:06;1.10;;;0.60;;
52322;SDS011;38263;52.920;6.238;2023-07-31T09:40:37;0.93;;;0.40;;
52322;SDS011;38263;52.920;6.238;2023-07-31T09:43:07;1.27;;;0.60;;
52322;SDS011;38263;52.920;6.238;2023-07-31T09:45:35;0.77;;;0.50;;
52322;SDS011;38263;52.920;6.238;2023-07-31T09:48:15;1.48;;;0.70;;
52322;SDS011;38263;52.920;6.238;2023-07-31T09:50:43;1.42;;;0.40;;
52322;SDS011;38263;52.920;6.238;2023-07-31T09:53:10;0.80;;;0.50;;
52322;SDS011;38263;52.920;6.238;2023-07-31T09:55:37;1.00;;;0.60;;
52322;SDS011;38263;52.920;6.238;2023-07-31T09:58:04;0.60;;;0.43;;
52322;SDS011;38263;52.920;6.238;2023-07-31T10:00:34;0.35;;;0.30;;
52322;SDS011;38263;52.920;6.238;2023-07-31T10:03:01;0.52;;;0.38;;
52322;SDS011;38263;52.920;6.238;2023-07-31T10:05:50;0.40;;;0.30;;
52322;SDS011;38263;52.920;6.238;2023-07-31T10:08:16;0.38;;;0.30;;
52322;SDS011;38263;52.920;6.238;2023-07-31T10:10:45;1.42;;;0.20;;
52322;SDS011;38263;52.920;6.238;2023-07-31T10:13:11;0.63;;;0.30;;
52322;SDS011;38263;52.920;6.238;2023-07-31T10:15:38;0.50;;;0.30;;
52322;SDS011;38263;52.920;6.238;2023-07-31T10:18:06;0.40;;;0.30;;
52322;SDS011;38263;52.920;6.238;2023-07-31T10:20:32;0.40;;;0.30;;
52322;SDS011;38263;52.920;6.238;2023-07-31T10:22:58;1.23;;;0.40;;
52322;SDS011;38263;52.920;6.238;2023-07-31T10:25:25;0.60;;;0.30;;
52322;SDS011;38263;52.920;6.238;2023-07-31T10:27:52;0.73;;;0.43;;
52322;SDS011;38263;52.920;6.238;2023-07-31T10:30:20;1.40;;;0.50;;
52322;SDS011;38263;52.920;6.238;2023-07-31T10:32:50;0.65;;;0.40;;
52322;SDS011;38263;52.920;6.238;2023-07-31T10:35:17;1.27;;;0.80;;
52322;SDS011;38263;52.920;6.238;2023-07-31T10:37:44;2.75;;;0.80;;
52322;SDS011;38263;52.920;6.238;2023-07-31T10:40:15;2.60;;;1.00;;
52322;SDS011;38263;52.920;6.238;2023-07-31T10:42:46;3.90;;;1.27;;
52322;SDS011;38263;52.920;6.238;2023-07-31T10:45:31;2.20;;;1.15;;
52322;SDS011;38263;52.920;6.238;2023-07-31T10:48:04;4.20;;;0.85;;
52322;SDS011;38263;52.920;6.238;2023-07-31T10:50:49;3.78;;;0.77;;
52322;SDS011;38263;52.920;6.238;2023-07-31T10:53:29;1.63;;;0.88;;
52322;SDS011;38263;52.920;6.238;2023-07-31T10:55:59;1.38;;;0.50;;
52322;SDS011;38263;52.920;6.238;2023-07-31T10:58:32;2.63;;;0.80;;
52322;SDS011;38263;52.920;6.238;2023-07-31T11:01:00;1.90;;;1.20;;
52322;SDS011;38263;52.920;6.238;2023-07-31T11:06:09;3.08;;;1.20;;
52322;SDS011;38263;52.920;6.238;2023-07-31T11:08:41;3.10;;;0.82;;
52322;SDS011;38263;52.920;6.238;2023-07-31T11:11:09;2.55;;;0.50;;
52322;SDS011;38263;52.920;6.238;2023-07-31T11:13:42;2.13;;;0.43;;
52322;SDS011;38263;52.920;6.238;2023-07-31T11:16:15;3.75;;;0.50;;
52322;SDS011;38263;52.920;6.238;2023-07-31T11:18:43;0.70;;;0.30;;
52322;SDS011;38263;52.920;6.238;2023-07-31T11:21:13;0.82;;;0.40;;
52322;SDS011;38263;52.920;6.238;2023-07-31T11:23:48;2.08;;;0.63;;
52322;SDS011;38263;52.920;6.238;2023-07-31T11:26:17;3.00;;;0.50;;
52322;SDS011;38263;52.920;6.238;2023-07-31T11:28:43;1.85;;;0.50;;
52322;SDS011;38263;52.920;6.238;2023-07-31T11:31:09;1.48;;;0.65;;
52322;SDS011;38263;52.920;6.238;2023-07-31T11:33:35;2.63;;;0.68;;
52322;SDS011;38263;52.920;6.238;2023-07-31T11:36:01;0.80;;;0.40;;
52322;SDS011;38263;52.920;6.238;2023-07-31T11:38:28;2.72;;;0.73;;
52322;SDS011;38263;52.920;6.238;2023-07-31T11:41:00;2.10;;;0.70;;
52322;SDS011;38263;52.920;6.238;2023-07-31T11:43:33;1.65;;;0.60;;
52322;SDS011;38263;52.920;6.238;2023-07-31T11:46:00;6.07;;;0.77;;
52322;SDS011;38263;52.920;6.238;2023-07-31T11:48:34;3.95;;;1.00;;
52322;SDS011;38263;52.920;6.238;2023-07-31T11:51:05;1.88;;;0.65;;
52322;SDS011;38263;52.920;6.238;2023-07-31T11:55:59;1.10;;;0.73;;
52322;SDS011;38263;52.920;6.238;2023-07-31T11:58:27;3.35;;;1.50;;
52322;SDS011;38263;52.920;6.238;2023-07-31T12:00:55;1.77;;;0.82;;
52322;SDS011;38263;52.920;6.238;2023-07-31T12:03:22;4.28;;;1.25;;
52322;SDS011;38263;52.920;6.238;2023-07-31T12:05:48;3.55;;;1.30;;
52322;SDS011;38263;52.920;6.238;2023-07-31T12:08:15;2.53;;;1.40;;
52322;SDS011;38263;52.920;6.238;2023-07-31T12:10:41;3.45;;;1.50;;
52322;SDS011;38263;52.920;6.238;2023-07-31T12:13:08;2.50;;;1.40;;
52322;SDS011;38263;52.920;6.238;2023-07-31T12:15:45;4.72;;;1.35;;
52322;SDS011;38263;52.920;6.238;2023-07-31T12:18:12;4.00;;;1.13;;
52322;SDS011;38263;52.920;6.238;2023-07-31T12:20:45;5.93;;;0.90;;
52322;SDS011;38263;52.920;6.238;2023-07-31T12:23:13;3.17;;;1.60;;
52322;SDS011;38263;52.920;6.238;2023-07-31T12:25:42;2.75;;;1.17;;
52322;SDS011;38263;52.920;6.238;2023-07-31T12:28:08;5.95;;;1.17;;
52322;SDS011;38263;52.920;6.238;2023-07-31T12:30:37;2.90;;;0.75;;
52322;SDS011;38263;52.920;6.238;2023-07-31T12:33:11;2.15;;;1.63;;
52322;SDS011;38263;52.920;6.238;2023-07-31T12:35:40;4.10;;;0.93;;
52322;SDS011;38263;52.920;6.238;2023-07-31T12:38:10;3.85;;;1.40;;
52322;SDS011;38263;52.920;6.238;2023-07-31T12:40:37;4.50;;;1.50;;
52322;SDS011;38263;52.920;6.238;2023-07-31T12:43:04;7.07;;;1.60;;
52322;SDS011;38263;52.920;6.238;2023-07-31T12:45:30;5.00;;;1.67;;
52322;SDS011;38263;52.920;6.238;2023-07-31T12:47:57;7.95;;;2.30;;
52322;SDS011;38263;52.920;6.238;2023-07-31T12:50:23;8.60;;;2.13;;
52322;SDS011;38263;52.920;6.238;2023-07-31T12:52:49;7.45;;;2.05;;
52322;SDS011;38263;52.920;6.238;2023-07-31T12:55:14;6.13;;;2.40;;
52322;SDS011;38263;52.920;6.238;2023-07-31T12:57:41;6.57;;;2.40;;
52322;SDS011;38263;52.920;6.238;2023-07-31T13:00:07;9.68;;;2.33;;
52322;SDS011;38263;52.920;6.238;2023-07-31T13:02:33;3.03;;;1.90;;
52322;SDS011;38263;52.920;6.238;2023-07-31T13:04:58;9.45;;;2.78;;
52322;SDS011;38263;52.920;6.238;2023-07-31T13:07:24;10.23;;;2.22;;
52322;SDS011;38263;52.920;6.238;2023-07-31T13:09:50;8.48;;;2.60;;
52322;SDS011;38263;52.920;6.238;2023-07-31T13:12:16;9.30;;;2.50;;
52322;SDS011;38263;52.920;6.238;2023-07-31T13:14:42;7.65;;;2.22;;
52322;SDS011;38263;52.920;6.238;2023-07-31T13:17:08;9.65;;;2.05;;
52322;SDS011;38263;52.920;6.238;2023-07-31T13:19:34;7.80;;;2.35;;
52322;SDS011;38263;52.920;6.238;2023-07-31T13:21:59;9.73;;;3.05;;
52322;SDS011;38263;52.920;6.238;2023-07-31T13:24:25;9.55;;;3.42;;
52322;SDS011;38263;52.920;6.238;2023-07-31T13:26:50;12.60;;;3.47;;
52322;SDS011;38263;52.920;6.238;2023-07-31T13:29:16;7.85;;;2.38;;
52322;SDS011;38263;52.920;6.238;2023-07-31T13:31:41;12.73;;;3.35;;
52322;SDS011;38263;52.920;6.238;2023-07-31T13:34:07;12.55;;;3.30;;
52322;SDS011;38263;52.920;6.238;2023-07-31T13:36:32;10.93;;;2.78;;
52322;SDS011;38263;52.920;6.238;2023-07-31T13:38:59;13.93;;;3.17;;
52322;SDS011;38263;52.920;6.238;2023-07-31T13:41:25;10.00;;;2.53;;
52322;SDS011;38263;52.920;6.238;2023-07-31T13:43:51;9.18;;;2.50;;
52322;SDS011;38263;52.920;6.238;2023-07-31T13:46:17;9.93;;;2.72;;
52322;SDS011;38263;52.920;6.238;2023-07-31T13:48:43;9.73;;;2.33;;
52322;SDS011;38263;52.920;6.238;2023-07-31T13:51:08;6.35;;;2.33;;
52322;SDS011;38263;52.920;6.238;2023-07-31T13:53:34;11.65;;;2.72;;
52322;SDS011;38263;52.920;6.238;2023-07-31T13:56:00;10.90;;;2.35;;
52322;SDS011;38263;52.920;6.238;2023-07-31T13:58:26;9.75;;;3.17;;
52322;SDS011;38263;52.920;6.238;2023-07-31T14:00:51;8.40;;;2.83;;
52322;SDS011;38263;52.920;6.238;2023-07-31T14:03:17;10.93;;;3.78;;
52322;SDS011;38263;52.920;6.238;2023-07-31T14:05:42;8.13;;;2.75;;
52322;SDS011;38263;52.920;6.238;2023-07-31T14:08:08;9.32;;;2.58;;
52322;SDS011;38263;52.920;6.238;2023-07-31T14:10:33;8.77;;;3.00;;
52322;SDS011;38263;52.920;6.238;2023-07-31T14:12:59;9.23;;;3.33;;
52322;SDS011;38263;52.920;6.238;2023-07-31T14:15:25;10.77;;;3.15;;
52322;SDS011;38263;52.920;6.238;2023-07-31T14:17:50;15.73;;;4.43;;
52322;SDS011;38263;52.920;6.238;2023-07-31T14:20:16;7.30;;;2.53;;
52322;SDS011;38263;52.920;6.238;2023-07-31T14:22:42;14.13;;;4.07;;
52322;SDS011;38263;52.920;6.238;2023-07-31T14:25:07;11.98;;;4.20;;
52322;SDS011;38263;52.920;6.238;2023-07-31T14:27:35;8.93;;;2.65;;
52322;SDS011;38263;52.920;6.238;2023-07-31T14:30:01;9.10;;;2.63;;
52322;SDS011;38263;52.920;6.238;2023-07-31T14:32:27;7.93;;;2.88;;
52322;SDS011;38263;52.920;6.238;2023-07-31T14:34:53;12.80;;;3.38;;
52322;SDS011;38263;52.920;6.238;2023-07-31T14:37:20;6.18;;;2.20;;
52322;SDS011;38263;52.920;6.238;2023-07-31T14:39:46;12.30;;;2.70;;
52322;SDS011;38263;52.920;6.238;2023-07-31T14:42:11;7.25;;;2.80;;
52322;SDS011;38263;52.920;6.238;2023-07-31T14:44:37;12.48;;;3.28;;
52322;SDS011;38263;52.920;6.238;2023-07-31T14:47:03;5.65;;;1.70;;
52322;SDS011;38263;52.920;6.238;2023-07-31T14:49:29;8.02;;;2.40;;
52322;SDS011;38263;52.920;6.238;2023-07-31T14:51:55;7.38;;;2.13;;
52322;SDS011;38263;52.920;6.238;2023-07-31T14:54:21;6.82;;;2.35;;
52322;SDS011;38263;52.920;6.238;2023-07-31T14:56:46;4.03;;;1.75;;